Terminal Aerodrome Forecast
Issued by NWS

Home | Current Version | Previous Version | Text Only | Print | Product List | Glossary Off
Versions: 1 2 3 4 5 6 7 8 9 10 11 12 13 14 15 16 17 18 19 20 21 22 23 24 25 26 27 28 29 30 31 32 33 34 35 36

827
FTUS43 KGRB 230525
TAFRHI
TAF
KRHI 230525Z 2306/2406 19004KT P6SM SKC WS007/19035KT
     FM231600 18014G24KT P6SM SCT250
     FM232300 19008KT P6SM SCT100 BKN250=

USA.gov is the U.S. government's official web portal to all federal, state and local government web resources and services.